sensor_id;sensor_type;location;lat;lon;timestamp;pressure;altitude;pressure_sealevel;temperature;humidity
54270;BME280;40181;51.560;13.000;2022-11-20T00:01:41;100413.03;;;-2.93;85.94
54270;BME280;40181;51.560;13.000;2022-11-20T00:04:11;100409.09;;;-2.88;86.60
54270;BME280;40181;51.560;13.000;2022-11-20T00:06:42;100413.16;;;-2.65;85.61
54270;BME280;40181;51.560;13.000;2022-11-20T00:09:11;100418.97;;;-2.67;85.38
54270;BME280;40181;51.560;13.000;2022-11-20T00:11:41;100426.63;;;-3.35;87.58
54270;BME280;40181;51.560;13.000;2022-11-20T00:14:10;100420.66;;;-2.95;87.06
54270;BME280;40181;51.560;13.000;2022-11-20T00:16:39;100427.66;;;-3.06;86.30
54270;BME280;40181;51.560;13.000;2022-11-20T00:19:09;100423.50;;;-3.03;86.92
54270;BME280;40181;51.560;13.000;2022-11-20T00:21:38;100415.91;;;-3.02;86.57
54270;BME280;40181;51.560;13.000;2022-11-20T00:24:10;100421.81;;;-3.16;87.54
54270;BME280;40181;51.560;13.000;2022-11-20T00:26:40;100424.03;;;-2.96;86.45
54270;BME280;40181;51.560;13.000;2022-11-20T00:29:09;100444.13;;;-3.15;87.27
54270;BME280;40181;51.560;13.000;2022-11-20T00:31:38;100433.06;;;-3.28;88.03
54270;BME280;40181;51.560;13.000;2022-11-20T00:34:09;100434.63;;;-3.30;87.94
54270;BME280;40181;51.560;13.000;2022-11-20T00:36:38;100432.91;;;-2.90;86.08
54270;BME280;40181;51.560;13.000;2022-11-20T00:39:10;100435.88;;;-3.11;86.75
54270;BME280;40181;51.560;13.000;2022-11-20T00:41:39;100435.47;;;-3.04;87.09
54270;BME280;40181;51.560;13.000;2022-11-20T00:44:08;100436.78;;;-2.97;86.72
54270;BME280;40181;51.560;13.000;2022-11-20T00:46:37;100433.59;;;-2.93;86.27
54270;BME280;40181;51.560;13.000;2022-11-20T00:49:06;100425.84;;;-3.20;87.17
54270;BME280;40181;51.560;13.000;2022-11-20T00:51:35;100422.94;;;-2.99;86.56
54270;BME280;40181;51.560;13.000;2022-11-20T00:54:07;100425.13;;;-2.79;85.63
54270;BME280;40181;51.560;13.000;2022-11-20T00:56:37;100422.25;;;-2.83;85.27
54270;BME280;40181;51.560;13.000;2022-11-20T00:59:06;100422.53;;;-3.06;86.63
54270;BME280;40181;51.560;13.000;2022-11-20T01:01:37;100427.22;;;-3.25;86.99
54270;BME280;40181;51.560;13.000;2022-11-20T01:04:06;100425.59;;;-3.11;86.69
54270;BME280;40181;51.560;13.000;2022-11-20T01:06:38;100431.63;;;-3.36;87.06
54270;BME280;40181;51.560;13.000;2022-11-20T01:09:12;100427.22;;;-3.25;87.84
54270;BME280;40181;51.560;13.000;2022-11-20T01:11:43;100423.81;;;-3.12;87.31
54270;BME280;40181;51.560;13.000;2022-11-20T01:14:15;100416.09;;;-3.12;87.15
54270;BME280;40181;51.560;13.000;2022-11-20T01:16:48;100417.03;;;-3.37;87.87
54270;BME280;40181;51.560;13.000;2022-11-20T01:19:20;100421.13;;;-3.53;88.11
54270;BME280;40181;51.560;13.000;2022-11-20T01:21:51;100431.38;;;-3.53;89.15
54270;BME280;40181;51.560;13.000;2022-11-20T01:24:24;100422.78;;;-3.28;88.91
54270;BME280;40181;51.560;13.000;2022-11-20T01:26:53;100419.84;;;-3.21;88.20
54270;BME280;40181;51.560;13.000;2022-11-20T01:29:23;100425.00;;;-3.46;88.76
54270;BME280;40181;51.560;13.000;2022-11-20T01:31:56;100421.91;;;-3.54;88.96
54270;BME280;40181;51.560;13.000;2022-11-20T01:34:25;100421.16;;;-3.39;88.89
54270;BME280;40181;51.560;13.000;2022-11-20T01:36:54;100423.41;;;-3.69;89.08
54270;BME280;40181;51.560;13.000;2022-11-20T01:39:26;100425.81;;;-3.34;89.49
54270;BME280;40181;51.560;13.000;2022-11-20T01:41:56;100422.16;;;-3.37;89.00
54270;BME280;40181;51.560;13.000;2022-11-20T01:44:48;100419.69;;;-3.36;89.41
54270;BME280;40181;51.560;13.000;2022-11-20T01:47:30;100413.81;;;-3.60;89.86
54270;BME280;40181;51.560;13.000;2022-11-20T01:50:05;100421.25;;;-3.77;89.91
54270;BME280;40181;51.560;13.000;2022-11-20T01:52:43;100413.84;;;-3.72;90.78
54270;BME280;40181;51.560;13.000;2022-11-20T01:55:21;100413.03;;;-3.45;89.90
54270;BME280;40181;51.560;13.000;2022-11-20T01:57:52;100404.91;;;-3.52;89.82
54270;BME280;40181;51.560;13.000;2022-11-20T02:00:21;100411.06;;;-3.50;90.03
54270;BME280;40181;51.560;13.000;2022-11-20T02:02:53;100405.44;;;-3.44;89.77
54270;BME280;40181;51.560;13.000;2022-11-20T02:05:27;100409.31;;;-3.37;89.19
54270;BME280;40181;51.560;13.000;2022-11-20T02:07:59;100406.41;;;-3.55;90.12
54270;BME280;40181;51.560;13.000;2022-11-20T02:10:32;100406.50;;;-3.54;90.16
54270;BME280;40181;51.560;13.000;2022-11-20T02:13:02;100401.38;;;-4.05;91.77
54270;BME280;40181;51.560;13.000;2022-11-20T02:15:45;100408.75;;;-4.09;91.84
54270;BME280;40181;51.560;13.000;2022-11-20T02:18:16;100398.75;;;-3.67;91.56
54270;BME280;40181;51.560;13.000;2022-11-20T02:20:49;100394.53;;;-4.04;92.28
54270;BME280;40181;51.560;13.000;2022-11-20T02:23:23;100400.19;;;-3.96;92.45
54270;BME280;40181;51.560;13.000;2022-11-20T02:26:00;100397.84;;;-3.68;90.87
54270;BME280;40181;51.560;13.000;2022-11-20T02:28:32;100393.88;;;-4.01;92.49
54270;BME280;40181;51.560;13.000;2022-11-20T02:31:01;100386.84;;;-3.79;91.63
54270;BME280;40181;51.560;13.000;2022-11-20T02:33:30;100399.78;;;-3.77;91.61
54270;BME280;40181;51.560;13.000;2022-11-20T02:36:00;100385.84;;;-4.06;92.15
54270;BME280;40181;51.560;13.000;2022-11-20T02:38:29;100385.44;;;-4.24;92.82
54270;BME280;40181;51.560;13.000;2022-11-20T02:41:01;100381.69;;;-4.29;93.33
54270;BME280;40181;51.560;13.000;2022-11-20T02:43:30;100382.56;;;-4.29;93.70
54270;BME280;40181;51.560;13.000;2022-11-20T02:45:59;100385.19;;;-4.41;94.03
54270;BME280;40181;51.560;13.000;2022-11-20T02:48:28;100393.56;;;-4.55;94.26
54270;BME280;40181;51.560;13.000;2022-11-20T02:50:57;100381.28;;;-4.10;93.06
54270;BME280;40181;51.560;13.000;2022-11-20T02:53:27;100378.47;;;-4.01;92.55
54270;BME280;40181;51.560;13.000;2022-11-20T02:55:56;100383.16;;;-4.45;92.91
54270;BME280;40181;51.560;13.000;2022-11-20T02:58:28;100377.16;;;-4.08;92.85
54270;BME280;40181;51.560;13.000;2022-11-20T03:00:57;100377.41;;;-4.17;92.86
54270;BME280;40181;51.560;13.000;2022-11-20T03:03:26;100378.19;;;-3.93;91.67
54270;BME280;40181;51.560;13.000;2022-11-20T03:05:55;100372.19;;;-4.19;91.64
54270;BME280;40181;51.560;13.000;2022-11-20T03:08:27;100372.16;;;-3.81;90.83
54270;BME280;40181;51.560;13.000;2022-11-20T03:10:56;100366.31;;;-4.04;91.37
54270;BME280;40181;51.560;13.000;2022-11-20T03:13:32;100370.38;;;-4.20;91.85
54270;BME280;40181;51.560;13.000;2022-11-20T03:16:06;100373.69;;;-4.09;92.00
54270;BME280;40181;51.560;13.000;2022-11-20T03:18:37;100374.75;;;-4.19;91.42
54270;BME280;40181;51.560;13.000;2022-11-20T03:21:07;100367.94;;;-3.93;90.85
54270;BME280;40181;51.560;13.000;2022-11-20T03:23:38;100375.44;;;-3.96;90.10
54270;BME280;40181;51.560;13.000;2022-11-20T03:26:09;100379.16;;;-4.04;91.34
54270;BME280;40181;51.560;13.000;2022-11-20T03:28:46;100368.88;;;-4.29;92.28
54270;BME280;40181;51.560;13.000;2022-11-20T03:31:17;100365.97;;;-4.34;92.19
54270;BME280;40181;51.560;13.000;2022-11-20T03:33:48;100365.41;;;-4.42;92.68
54270;BME280;40181;51.560;13.000;2022-11-20T03:36:19;100362.47;;;-4.60;92.76
54270;BME280;40181;51.560;13.000;2022-11-20T03:38:49;100366.47;;;-4.64;93.15
54270;BME280;40181;51.560;13.000;2022-11-20T03:41:20;100365.94;;;-4.22;91.99
54270;BME280;40181;51.560;13.000;2022-11-20T03:43:55;100361.78;;;-4.57;92.86
54270;BME280;40181;51.560;13.000;2022-11-20T03:46:26;100362.75;;;-4.43;92.51
54270;BME280;40181;51.560;13.000;2022-11-20T03:48:56;100359.84;;;-4.36;92.84
54270;BME280;40181;51.560;13.000;2022-11-20T03:51:26;100351.41;;;-4.47;92.55
54270;BME280;40181;51.560;13.000;2022-11-20T03:53:58;100349.81;;;-4.33;92.53
54270;BME280;40181;51.560;13.000;2022-11-20T03:56:30;100351.16;;;-4.50;92.69
54270;BME280;40181;51.560;13.000;2022-11-20T03:59:03;100348.19;;;-4.56;93.37
54270;BME280;40181;51.560;13.000;2022-11-20T04:01:34;100343.72;;;-4.59;93.31
54270;BME280;40181;51.560;13.000;2022-11-20T04:04:04;100343.94;;;-4.56;93.09
54270;BME280;40181;51.560;13.000;2022-11-20T04:06:35;100336.63;;;-4.75;93.32
54270;BME280;40181;51.560;13.000;2022-11-20T04:09:06;100337.81;;;-4.58;93.66
54270;BME280;40181;51.560;13.000;2022-11-20T04:11:37;100330.78;;;-4.61;93.47
54270;BME280;40181;51.560;13.000;2022-11-20T04:14:15;100335.56;;;-4.53;92.35
54270;BME280;40181;51.560;13.000;2022-11-20T04:16:44;100331.50;;;-4.75;94.32
54270;BME280;40181;51.560;13.000;2022-11-20T04:19:15;100333.16;;;-4.76;93.91
54270;BME280;40181;51.560;13.000;2022-11-20T04:21:45;100334.94;;;-4.75;94.80
54270;BME280;40181;51.560;13.000;2022-11-20T04:24:14;100338.53;;;-5.08;95.28
54270;BME280;40181;51.560;13.000;2022-11-20T04:26:43;100342.75;;;-4.97;95.11
54270;BME280;40181;51.560;13.000;2022-11-20T04:29:15;100343.53;;;-4.98;95.29
54270;BME280;40181;51.560;13.000;2022-11-20T04:31:44;100343.78;;;-4.95;95.07
54270;BME280;40181;51.560;13.000;2022-11-20T04:34:13;100339.00;;;-4.90;94.55
54270;BME280;40181;51.560;13.000;2022-11-20T04:36:43;100329.94;;;-4.97;94.76
54270;BME280;40181;51.560;13.000;2022-11-20T04:39:13;100338.75;;;-4.93;94.36
54270;BME280;40181;51.560;13.000;2022-11-20T04:41:43;100332.69;;;-4.70;93.97
54270;BME280;40181;51.560;13.000;2022-11-20T04:44:15;100337.75;;;-4.95;94.01
54270;BME280;40181;51.560;13.000;2022-11-20T04:46:44;100337.28;;;-4.66;93.97
54270;BME280;40181;51.560;13.000;2022-11-20T04:49:14;100326.28;;;-4.89;93.83
54270;BME280;40181;51.560;13.000;2022-11-20T04:51:43;100335.84;;;-4.86;93.32
54270;BME280;40181;51.560;13.000;2022-11-20T04:54:12;100339.41;;;-4.72;93.58
54270;BME280;40181;51.560;13.000;2022-11-20T04:56:42;100339.38;;;-4.48;92.52
54270;BME280;40181;51.560;13.000;2022-11-20T04:59:11;100338.16;;;-4.65;92.84
54270;BME280;40181;51.560;13.000;2022-11-20T05:01:43;100338.22;;;-4.89;93.74
54270;BME280;40181;51.560;13.000;2022-11-20T05:04:12;100335.59;;;-4.65;93.93
54270;BME280;40181;51.560;13.000;2022-11-20T05:06:41;100333.81;;;-4.78;93.18
54270;BME280;40181;51.560;13.000;2022-11-20T05:09:10;100335.56;;;-4.53;92.83
54270;BME280;40181;51.560;13.000;2022-11-20T05:11:40;100331.97;;;-4.81;92.37
54270;BME280;40181;51.560;13.000;2022-11-20T05:14:09;100327.44;;;-4.60;92.45
54270;BME280;40181;51.560;13.000;2022-11-20T05:16:41;100330.97;;;-4.95;93.11
54270;BME280;40181;51.560;13.000;2022-11-20T05:19:10;100326.06;;;-4.92;93.13
54270;BME280;40181;51.560;13.000;2022-11-20T05:21:39;100322.84;;;-5.01;93.31
54270;BME280;40181;51.560;13.000;2022-11-20T05:24:09;100314.44;;;-4.87;93.21
54270;BME280;40181;51.560;13.000;2022-11-20T05:26:39;100312.06;;;-4.60;92.88
54270;BME280;40181;51.560;13.000;2022-11-20T05:29:10;100312.91;;;-4.73;92.05
54270;BME280;40181;51.560;13.000;2022-11-20T05:31:42;100328.81;;;-4.65;92.47
54270;BME280;40181;51.560;13.000;2022-11-20T05:34:11;100325.56;;;-4.62;92.18
54270;BME280;40181;51.560;13.000;2022-11-20T05:36:40;100317.94;;;-4.49;91.69
54270;BME280;40181;51.560;13.000;2022-11-20T05:39:10;100314.63;;;-4.60;92.17
54270;BME280;40181;51.560;13.000;2022-11-20T05:41:39;100310.50;;;-4.46;91.14
54270;BME280;40181;51.560;13.000;2022-11-20T05:44:10;100317.66;;;-4.65;91.47
54270;BME280;40181;51.560;13.000;2022-11-20T05:46:42;100307.22;;;-4.80;92.72
54270;BME280;40181;51.560;13.000;2022-11-20T05:49:11;100312.91;;;-4.84;92.58
54270;BME280;40181;51.560;13.000;2022-11-20T05:51:40;100321.41;;;-4.48;91.70
54270;BME280;40181;51.560;13.000;2022-11-20T05:54:10;100315.50;;;-4.47;91.42
54270;BME280;40181;51.560;13.000;2022-11-20T05:56:39;100296.97;;;-4.43;91.70
54270;BME280;40181;51.560;13.000;2022-11-20T05:59:09;100290.41;;;-4.51;90.87
54270;BME280;40181;51.560;13.000;2022-11-20T06:01:38;100283.94;;;-4.46;91.08
54270;BME280;40181;51.560;13.000;2022-11-20T06:04:10;100291.75;;;-4.45;90.89
54270;BME280;40181;51.560;13.000;2022-11-20T06:06:39;100290.06;;;-4.44;90.67
54270;BME280;40181;51.560;13.000;2022-11-20T06:09:08;100290.44;;;-4.26;89.90
54270;BME280;40181;51.560;13.000;2022-11-20T06:11:38;100287.84;;;-4.14;89.58
54270;BME280;40181;51.560;13.000;2022-11-20T06:14:07;100295.91;;;-4.21;88.99
54270;BME280;40181;51.560;13.000;2022-11-20T06:16:36;100291.56;;;-4.22;88.88
54270;BME280;40181;51.560;13.000;2022-11-20T06:19:08;100299.03;;;-4.25;89.24
54270;BME280;40181;51.560;13.000;2022-11-20T06:21:37;100292.78;;;-4.29;89.18
54270;BME280;40181;51.560;13.000;2022-11-20T06:24:08;100300.88;;;-4.36;90.26
54270;BME280;40181;51.560;13.000;2022-11-20T06:26:37;100300.22;;;-4.46;89.78
54270;BME280;40181;51.560;13.000;2022-11-20T06:29:07;100297.75;;;-4.44;90.21
54270;BME280;40181;51.560;13.000;2022-11-20T06:31:36;100302.06;;;-4.31;90.18
54270;BME280;40181;51.560;13.000;2022-11-20T06:34:11;100301.50;;;-4.27;89.15
54270;BME280;40181;51.560;13.000;2022-11-20T06:36:40;100296.56;;;-4.24;89.03
54270;BME280;40181;51.560;13.000;2022-11-20T06:39:10;100294.44;;;-4.18;89.18
54270;BME280;40181;51.560;13.000;2022-11-20T06:41:39;100295.09;;;-4.20;88.51
54270;BME280;40181;51.560;13.000;2022-11-20T06:44:08;100302.88;;;-4.44;89.58
54270;BME280;40181;51.560;13.000;2022-11-20T06:46:37;100310.03;;;-4.40;89.39
54270;BME280;40181;51.560;13.000;2022-11-20T06:49:06;100312.69;;;-4.50;90.23
54270;BME280;40181;51.560;13.000;2022-11-20T06:51:38;100297.56;;;-4.47;90.00
54270;BME280;40181;51.560;13.000;2022-11-20T06:54:07;100314.72;;;-4.46;89.89
54270;BME280;40181;51.560;13.000;2022-11-20T06:56:37;100299.34;;;-4.21;88.59
54270;BME280;40181;51.560;13.000;2022-11-20T06:59:07;100298.63;;;-4.32;88.17
54270;BME280;40181;51.560;13.000;2022-11-20T07:01:36;100302.69;;;-4.22;89.12
54270;BME280;40181;51.560;13.000;2022-11-20T07:04:05;100322.22;;;-4.61;89.43
54270;BME280;40181;51.560;13.000;2022-11-20T07:06:37;100305.69;;;-4.41;89.84
54270;BME280;40181;51.560;13.000;2022-11-20T07:09:06;100300.47;;;-4.29;88.88
54270;BME280;40181;51.560;13.000;2022-11-20T07:11:36;100304.69;;;-4.18;88.11
54270;BME280;40181;51.560;13.000;2022-11-20T07:14:05;100297.31;;;-4.13;88.03
54270;BME280;40181;51.560;13.000;2022-11-20T07:16:34;100297.09;;;-4.16;87.87
54270;BME280;40181;51.560;13.000;2022-11-20T07:19:03;100300.88;;;-4.11;87.28
54270;BME280;40181;51.560;13.000;2022-11-20T07:21:32;100300.47;;;-4.29;87.61
54270;BME280;40181;51.560;13.000;2022-11-20T07:24:04;100296.25;;;-4.03;87.27
54270;BME280;40181;51.560;13.000;2022-11-20T07:26:34;100303.84;;;-4.30;88.40
54270;BME280;40181;51.560;13.000;2022-11-20T07:29:03;100293.44;;;-4.57;88.22
54270;BME280;40181;51.560;13.000;2022-11-20T07:31:32;100300.63;;;-4.39;88.42
54270;BME280;40181;51.560;13.000;2022-11-20T07:34:01;100295.34;;;-4.29;87.51
54270;BME280;40181;51.560;13.000;2022-11-20T07:36:31;100289.50;;;-4.40;88.70
54270;BME280;40181;51.560;13.000;2022-11-20T07:39:00;100297.56;;;-4.22;87.93
54270;BME280;40181;51.560;13.000;2022-11-20T07:41:32;100289.91;;;-4.34;88.06
54270;BME280;40181;51.560;13.000;2022-11-20T07:44:01;100296.22;;;-4.17;87.54
54270;BME280;40181;51.560;13.000;2022-11-20T07:46:30;100295.75;;;-3.97;86.72
54270;BME280;40181;51.560;13.000;2022-11-20T07:49:00;100293.47;;;-4.06;86.71
54270;BME280;40181;51.560;13.000;2022-11-20T07:51:29;100292.38;;;-4.10;87.73
54270;BME280;40181;51.560;13.000;2022-11-20T07:53:58;100284.94;;;-3.93;86.58
54270;BME280;40181;51.560;13.000;2022-11-20T07:56:30;100295.00;;;-4.22;87.57
54270;BME280;40181;51.560;13.000;2022-11-20T07:58:59;100285.50;;;-3.97;87.40
54270;BME280;40181;51.560;13.000;2022-11-20T08:01:29;100277.53;;;-3.89;86.80
54270;BME280;40181;51.560;13.000;2022-11-20T08:03:58;100280.84;;;-4.03;87.37
54270;BME280;40181;51.560;13.000;2022-11-20T08:06:27;100280.63;;;-3.81;86.89
54270;BME280;40181;51.560;13.000;2022-11-20T08:08:56;100290.50;;;-3.87;87.49
54270;BME280;40181;51.560;13.000;2022-11-20T08:11:26;100298.31;;;-3.72;86.57
54270;BME280;40181;51.560;13.000;2022-11-20T08:14:10;100299.59;;;-4.04;87.60
54270;BME280;40181;51.560;13.000;2022-11-20T08:16:44;100302.66;;;-3.96;87.37
54270;BME280;40181;51.560;13.000;2022-11-20T08:19:15;100304.16;;;-4.25;88.55
54270;BME280;40181;51.560;13.000;2022-11-20T08:21:45;100299.75;;;-4.14;88.90
54270;BME280;40181;51.560;13.000;2022-11-20T08:24:18;100313.84;;;-4.21;89.02
54270;BME280;40181;51.560;13.000;2022-11-20T08:26:47;100301.50;;;-4.01;89.10
54270;BME280;40181;51.560;13.000;2022-11-20T08:29:19;100304.50;;;-3.82;88.04
54270;BME280;40181;51.560;13.000;2022-11-20T08:31:48;100297.16;;;-4.03;88.23
54270;BME280;40181;51.560;13.000;2022-11-20T08:34:17;100296.97;;;-3.92;88.34
54270;BME280;40181;51.560;13.000;2022-11-20T08:36:46;100288.75;;;-3.61;87.48
54270;BME280;40181;51.560;13.000;2022-11-20T08:39:16;100287.88;;;-3.62;87.04
54270;BME280;40181;51.560;13.000;2022-11-20T08:41:45;100299.47;;;-3.41;86.53
54270;BME280;40181;51.560;13.000;2022-11-20T08:44:14;100285.78;;;-3.54;86.77
54270;BME280;40181;51.560;13.000;2022-11-20T08:46:46;100284.88;;;-3.68;86.90
54270;BME280;40181;51.560;13.000;2022-11-20T08:49:15;100292.50;;;-3.56;87.59
54270;BME280;40181;51.560;13.000;2022-11-20T08:51:45;100291.03;;;-3.39;87.12
54270;BME280;40181;51.560;13.000;2022-11-20T08:54:17;100290.13;;;-3.66;87.33
54270;BME280;40181;51.560;13.000;2022-11-20T08:56:48;100293.13;;;-3.47;86.82
54270;BME280;40181;51.560;13.000;2022-11-20T08:59:18;100288.34;;;-3.67;87.26
54270;BME280;40181;51.560;13.000;2022-11-20T09:01:50;100286.91;;;-3.37;86.49
54270;BME280;40181;51.560;13.000;2022-11-20T09:04:19;100294.81;;;-3.34;85.88
54270;BME280;40181;51.560;13.000;2022-11-20T09:06:48;100296.78;;;-3.43;86.58
54270;BME280;40181;51.560;13.000;2022-11-20T09:09:18;100282.56;;;-3.24;85.55
54270;BME280;40181;51.560;13.000;2022-11-20T09:11:47;100285.59;;;-3.43;85.68
54270;BME280;40181;51.560;13.000;2022-11-20T09:14:18;100277.41;;;-3.24;84.97
54270;BME280;40181;51.560;13.000;2022-11-20T09:16:52;100281.19;;;-3.19;84.84
54270;BME280;40181;51.560;13.000;2022-11-20T09:19:21;100277.81;;;-3.18;85.01
54270;BME280;40181;51.560;13.000;2022-11-20T09:21:55;100271.19;;;-3.01;85.22
54270;BME280;40181;51.560;13.000;2022-11-20T09:24:25;100267.44;;;-3.06;85.00
54270;BME280;40181;51.560;13.000;2022-11-20T09:26:57;100266.44;;;-2.95;84.90
54270;BME280;40181;51.560;13.000;2022-11-20T09:29:29;100261.47;;;-2.92;84.69
54270;BME280;40181;51.560;13.000;2022-11-20T09:32:00;100260.91;;;-3.01;85.03
54270;BME280;40181;51.560;13.000;2022-11-20T09:34:30;100256.91;;;-2.82;84.74
54270;BME280;40181;51.560;13.000;2022-11-20T09:36:59;100266.16;;;-2.99;85.47
54270;BME280;40181;51.560;13.000;2022-11-20T09:39:28;100247.59;;;-2.80;85.21
54270;BME280;40181;51.560;13.000;2022-11-20T09:42:14;100246.50;;;-3.12;86.06
54270;BME280;40181;51.560;13.000;2022-11-20T09:45:21;100245.88;;;-2.95;86.64
54270;BME280;40181;51.560;13.000;2022-11-20T09:48:12;100243.47;;;-2.92;85.88
54270;BME280;40181;51.560;13.000;2022-11-20T09:50:51;100240.41;;;-2.86;85.91
54270;BME280;40181;51.560;13.000;2022-11-20T09:53:31;100229.81;;;-2.77;86.05
54270;BME280;40181;51.560;13.000;2022-11-20T09:56:09;100232.31;;;-2.64;85.17
54270;BME280;40181;51.560;13.000;2022-11-20T09:58:41;100231.53;;;-2.62;85.63
54270;BME280;40181;51.560;13.000;2022-11-20T10:01:14;100226.78;;;-2.56;85.53
54270;BME280;40181;51.560;13.000;2022-11-20T10:03:52;100229.28;;;-2.71;86.14
54270;BME280;40181;51.560;13.000;2022-11-20T10:06:29;100218.09;;;-2.58;85.70
54270;BME280;40181;51.560;13.000;2022-11-20T10:09:06;100224.44;;;-2.67;85.58
54270;BME280;40181;51.560;13.000;2022-11-20T10:11:52;100215.69;;;-2.55;86.07
54270;BME280;40181;51.560;13.000;2022-11-20T10:14:37;100205.34;;;-2.42;85.87
54270;BME280;40181;51.560;13.000;2022-11-20T10:17:20;100204.28;;;-2.45;85.87
54270;BME280;40181;51.560;13.000;2022-11-20T10:20:15;100203.94;;;-2.37;85.95
54270;BME280;40181;51.560;13.000;2022-11-20T10:22:56;100205.38;;;-2.12;85.83
54270;BME280;40181;51.560;13.000;2022-11-20T10:25:49;100210.41;;;-2.28;85.63
54270;BME280;40181;51.560;13.000;2022-11-20T10:28:30;100202.88;;;-2.25;85.58
54270;BME280;40181;51.560;13.000;2022-11-20T10:31:10;100204.69;;;-2.24;85.51
54270;BME280;40181;51.560;13.000;2022-11-20T10:33:53;100209.63;;;-2.27;85.41
54270;BME280;40181;51.560;13.000;2022-11-20T10:36:28;100213.13;;;-2.40;85.70
54270;BME280;40181;51.560;13.000;2022-11-20T10:39:06;100209.72;;;-2.11;85.62
54270;BME280;40181;51.560;13.000;2022-11-20T10:41:43;100201.84;;;-1.99;85.16
54270;BME280;40181;51.560;13.000;2022-11-20T10:44:19;100193.06;;;-2.02;85.26
54270;BME280;40181;51.560;13.000;2022-11-20T10:47:02;100197.41;;;-2.01;85.49
54270;BME280;40181;51.560;13.000;2022-11-20T10:49:33;100212.03;;;-1.85;85.50
54270;BME280;40181;51.560;13.000;2022-11-20T10:52:12;100198.63;;;-1.64;84.89
54270;BME280;40181;51.560;13.000;2022-11-20T10:54:50;100199.19;;;-1.70;84.26
54270;BME280;40181;51.560;13.000;2022-11-20T10:57:34;100202.06;;;-1.49;83.55
54270;BME280;40181;51.560;13.000;2022-11-20T11:00:13;100199.88;;;-1.58;83.52
54270;BME280;40181;51.560;13.000;2022-11-20T11:02:45;100181.16;;;-1.70;82.86
54270;BME280;40181;51.560;13.000;2022-11-20T11:05:29;100179.63;;;-1.51;82.37
54270;BME280;40181;51.560;13.000;2022-11-20T11:08:09;100174.78;;;-1.45;82.37
54270;BME280;40181;51.560;13.000;2022-11-20T11:10:45;100169.63;;;-1.30;82.66
54270;BME280;40181;51.560;13.000;2022-11-20T11:13:21;100174.91;;;-1.59;82.02
54270;BME280;40181;51.560;13.000;2022-11-20T11:15:52;100172.69;;;-1.52;82.67
54270;BME280;40181;51.560;13.000;2022-11-20T11:18:26;100157.03;;;-1.24;82.18
54270;BME280;40181;51.560;13.000;2022-11-20T11:20:59;100171.16;;;-1.01;81.34
54270;BME280;40181;51.560;13.000;2022-11-20T11:23:34;100152.66;;;-0.77;81.25
54270;BME280;40181;51.560;13.000;2022-11-20T11:26:17;100150.47;;;-0.52;80.06
54270;BME280;40181;51.560;13.000;2022-11-20T11:28:54;100151.38;;;-0.52;79.30
54270;BME280;40181;51.560;13.000;2022-11-20T11:31:25;100146.69;;;-0.43;79.68
54270;BME280;40181;51.560;13.000;2022-11-20T11:34:04;100152.72;;;-0.42;79.18
54270;BME280;40181;51.560;13.000;2022-11-20T11:36:38;100147.72;;;-0.89;79.33
54270;BME280;40181;51.560;13.000;2022-11-20T11:39:14;100145.53;;;-0.31;78.98
54270;BME280;40181;51.560;13.000;2022-11-20T11:41:47;100143.91;;;0.06;77.16
54270;BME280;40181;51.560;13.000;2022-11-20T11:44:20;100139.38;;;-0.17;76.14
54270;BME280;40181;51.560;13.000;2022-11-20T11:47:04;100125.00;;;0.25;75.53
54270;BME280;40181;51.560;13.000;2022-11-20T11:49:37;100132.00;;;-0.09;75.74
54270;BME280;40181;51.560;13.000;2022-11-20T11:52:12;100128.09;;;-0.01;76.83
54270;BME280;40181;51.560;13.000;2022-11-20T11:54:49;100127.63;;;0.08;75.12
54270;BME280;40181;51.560;13.000;2022-11-20T11:57:26;100135.47;;;0.46;75.00
54270;BME280;40181;51.560;13.000;2022-11-20T12:00:04;100131.38;;;-0.21;75.60
54270;BME280;40181;51.560;13.000;2022-11-20T12:02:40;100121.47;;;0.41;74.89
54270;BME280;40181;51.560;13.000;2022-11-20T12:05:24;100120.06;;;0.11;74.90
54270;BME280;40181;51.560;13.000;2022-11-20T12:07:58;100122.69;;;0.13;74.92
54270;BME280;40181;51.560;13.000;2022-11-20T12:10:41;100105.72;;;0.74;73.74
54270;BME280;40181;51.560;13.000;2022-11-20T12:13:21;100114.22;;;0.34;73.72
54270;BME280;40181;51.560;13.000;2022-11-20T12:15:59;100103.53;;;0.82;73.33
54270;BME280;40181;51.560;13.000;2022-11-20T12:18:30;100096.00;;;0.12;74.44
54270;BME280;40181;51.560;13.000;2022-11-20T12:21:10;100102.69;;;-0.09;75.20
54270;BME280;40181;51.560;13.000;2022-11-20T12:23:56;100090.91;;;0.14;75.66
54270;BME280;40181;51.560;13.000;2022-11-20T12:26:55;100091.34;;;0.23;73.84
54270;BME280;40181;51.560;13.000;2022-11-20T12:29:39;100092.47;;;1.26;71.49
54270;BME280;40181;51.560;13.000;2022-11-20T12:32:46;100091.88;;;1.12;70.91
54270;BME280;40181;51.560;13.000;2022-11-20T12:38:48;100096.66;;;1.63;71.87
54270;BME280;40181;51.560;13.000;2022-11-20T12:41:41;100108.69;;;1.02;72.37
54270;BME280;40181;51.560;13.000;2022-11-20T12:44:57;100109.63;;;1.23;72.85
54270;BME280;40181;51.560;13.000;2022-11-20T12:50:47;100105.09;;;1.59;70.24
54270;BME280;40181;51.560;13.000;2022-11-20T12:53:27;100109.59;;;1.84;70.36
54270;BME280;40181;51.560;13.000;2022-11-20T12:56:10;100111.81;;;0.94;73.67
54270;BME280;40181;51.560;13.000;2022-11-20T12:58:59;100119.66;;;0.58;75.17
54270;BME280;40181;51.560;13.000;2022-11-20T13:01:40;100111.41;;;0.11;76.41
54270;BME280;40181;51.560;13.000;2022-11-20T13:04:28;100107.28;;;0.33;76.58
54270;BME280;40181;51.560;13.000;2022-11-20T13:07:10;100105.00;;;0.77;75.58
54270;BME280;40181;51.560;13.000;2022-11-20T13:09:44;100112.28;;;0.48;75.74
54270;BME280;40181;51.560;13.000;2022-11-20T13:12:16;100101.66;;;0.41;76.69
54270;BME280;40181;51.560;13.000;2022-11-20T13:14:55;100106.91;;;0.25;78.13
54270;BME280;40181;51.560;13.000;2022-11-20T13:17:33;100103.66;;;0.11;78.51